sensor_id;sensor_type;location;lat;lon;timestamp;pressure;altitude;pressure_sealevel;temperature;humidity
6096;BME280;25081;42.698;23.298;2022-07-10T00:01:24;95147.51;;;15.66;82.78
6096;BME280;25081;42.698;23.298;2022-07-10T00:03:35;95142.02;;;15.59;83.05
6096;BME280;25081;42.698;23.298;2022-07-10T00:05:46;95140.93;;;15.57;82.89
6096;BME280;25081;42.698;23.298;2022-07-10T00:07:57;95149.01;;;15.60;83.32
6096;BME280;25081;42.698;23.298;2022-07-10T00:10:09;95140.23;;;15.64;82.80
6096;BME280;25081;42.698;23.298;2022-07-10T00:12:19;95141.53;;;15.62;82.85
6096;BME280;25081;42.698;23.298;2022-07-10T00:14:30;95142.83;;;15.59;82.96
6096;BME280;25081;42.698;23.298;2022-07-10T00:16:41;95141.95;;;15.54;83.38
6096;BME280;25081;42.698;23.298;2022-07-10T00:18:51;95140.33;;;15.53;83.36
6096;BME280;25081;42.698;23.298;2022-07-10T00:21:02;95140.66;;;15.56;83.52
6096;BME280;25081;42.698;23.298;2022-07-10T00:23:13;95143.59;;;15.55;83.42
6096;BME280;25081;42.698;23.298;2022-07-10T00:25:24;95136.34;;;15.55;83.74
6096;BME280;25081;42.698;23.298;2022-07-10T00:27:34;95139.52;;;15.52;83.91
6096;BME280;25081;42.698;23.298;2022-07-10T00:29:45;95134.14;;;15.52;83.88
6096;BME280;25081;42.698;23.298;2022-07-10T00:31:56;95138.22;;;15.55;83.76
6096;BME280;25081;42.698;23.298;2022-07-10T00:34:07;95136.55;;;15.51;83.70
6096;BME280;25081;42.698;23.298;2022-07-10T00:36:18;95133.07;;;15.53;83.53
6096;BME280;25081;42.698;23.298;2022-07-10T00:38:30;95132.80;;;15.52;83.64
6096;BME280;25081;42.698;23.298;2022-07-10T00:40:40;95130.09;;;15.50;83.54
6096;BME280;25081;42.698;23.298;2022-07-10T00:42:51;95125.17;;;15.44;83.57
6096;BME280;25081;42.698;23.298;2022-07-10T00:45:02;95129.47;;;15.42;83.76
6096;BME280;25081;42.698;23.298;2022-07-10T00:47:13;95123.54;;;15.40;83.94
6096;BME280;25081;42.698;23.298;2022-07-10T00:49:24;95125.97;;;15.42;83.89
6096;BME280;25081;42.698;23.298;2022-07-10T00:51:35;95130.23;;;15.38;84.12
6096;BME280;25081;42.698;23.298;2022-07-10T00:53:46;95122.22;;;15.43;84.01
6096;BME280;25081;42.698;23.298;2022-07-10T00:55:56;95117.63;;;15.41;83.88
6096;BME280;25081;42.698;23.298;2022-07-10T00:58:07;95112.00;;;15.42;83.96
6096;BME280;25081;42.698;23.298;2022-07-10T01:00:18;95115.44;;;15.35;83.90
6096;BME280;25081;42.698;23.298;2022-07-10T01:02:29;95116.47;;;15.34;83.98
6096;BME280;25081;42.698;23.298;2022-07-10T01:04:39;95112.75;;;15.35;83.83
6096;BME280;25081;42.698;23.298;2022-07-10T01:06:50;95108.47;;;15.37;84.16
6096;BME280;25081;42.698;23.298;2022-07-10T01:09:01;95115.72;;;15.36;83.76
6096;BME280;25081;42.698;23.298;2022-07-10T01:11:12;95112.17;;;15.33;83.74
6096;BME280;25081;42.698;23.298;2022-07-10T01:13:22;95112.80;;;15.40;83.50
6096;BME280;25081;42.698;23.298;2022-07-10T01:15:33;95110.11;;;15.40;83.41
6096;BME280;25081;42.698;23.298;2022-07-10T01:17:43;95108.41;;;15.34;83.39
6096;BME280;25081;42.698;23.298;2022-07-10T01:19:54;95105.45;;;15.33;83.58
6096;BME280;25081;42.698;23.298;2022-07-10T01:22:05;95105.55;;;15.41;83.53
6096;BME280;25081;42.698;23.298;2022-07-10T01:24:15;95108.50;;;15.42;83.25
6096;BME280;25081;42.698;23.298;2022-07-10T01:26:26;95104.20;;;15.41;83.22
6096;BME280;25081;42.698;23.298;2022-07-10T01:28:37;95106.08;;;15.40;83.36
6096;BME280;25081;42.698;23.298;2022-07-10T01:30:47;95100.70;;;15.40;83.51
6096;BME280;25081;42.698;23.298;2022-07-10T01:32:58;95101.49;;;15.38;83.28
6096;BME280;25081;42.698;23.298;2022-07-10T01:35:10;95096.66;;;15.38;83.60
6096;BME280;25081;42.698;23.298;2022-07-10T01:37:20;95101.75;;;15.37;83.67
6096;BME280;25081;42.698;23.298;2022-07-10T01:39:31;95096.97;;;15.44;83.78
6096;BME280;25081;42.698;23.298;2022-07-10T01:41:42;95096.48;;;15.47;83.36
6096;BME280;25081;42.698;23.298;2022-07-10T01:43:52;95091.11;;;15.47;83.32
6096;BME280;25081;42.698;23.298;2022-07-10T01:46:03;95091.66;;;15.49;83.14
6096;BME280;25081;42.698;23.298;2022-07-10T01:48:13;95087.89;;;15.48;83.10
6096;BME280;25081;42.698;23.298;2022-07-10T01:50:24;95083.31;;;15.45;82.95
6096;BME280;25081;42.698;23.298;2022-07-10T01:52:35;95081.92;;;15.43;83.32
6096;BME280;25081;42.698;23.298;2022-07-10T01:54:46;95090.85;;;15.49;82.74
6096;BME280;25081;42.698;23.298;2022-07-10T01:56:56;95089.22;;;15.45;82.96
6096;BME280;25081;42.698;23.298;2022-07-10T01:59:07;95090.56;;;15.45;82.96
6096;BME280;25081;42.698;23.298;2022-07-10T02:01:18;95087.78;;;15.37;83.04
6096;BME280;25081;42.698;23.298;2022-07-10T02:03:28;95084.22;;;15.32;83.14
6096;BME280;25081;42.698;23.298;2022-07-10T02:05:56;95081.70;;;15.23;83.51
6096;BME280;25081;42.698;23.298;2022-07-10T02:08:07;95076.07;;;15.24;83.49
6096;BME280;25081;42.698;23.298;2022-07-10T02:10:17;95077.37;;;15.19;83.66
6096;BME280;25081;42.698;23.298;2022-07-10T02:12:28;95075.73;;;15.15;83.66
6096;BME280;25081;42.698;23.298;2022-07-10T02:14:39;95077.83;;;15.13;83.55
6096;BME280;25081;42.698;23.298;2022-07-10T02:16:49;95076.55;;;15.16;83.82
6096;BME280;25081;42.698;23.298;2022-07-10T02:19:00;95077.58;;;15.15;83.77
6096;BME280;25081;42.698;23.298;2022-07-10T02:21:11;95076.28;;;15.17;83.73
6096;BME280;25081;42.698;23.298;2022-07-10T02:23:21;95077.08;;;15.15;83.61
6096;BME280;25081;42.698;23.298;2022-07-10T02:25:32;95077.08;;;15.15;83.51
6096;BME280;25081;42.698;23.298;2022-07-10T02:27:42;95075.94;;;15.11;83.61
6096;BME280;25081;42.698;23.298;2022-07-10T02:29:53;95073.25;;;15.11;83.60
6096;BME280;25081;42.698;23.298;2022-07-10T02:32:05;95071.09;;;15.11;83.60
6096;BME280;25081;42.698;23.298;2022-07-10T02:34:15;95077.02;;;15.13;83.67
6096;BME280;25081;42.698;23.298;2022-07-10T02:36:26;95076.42;;;15.06;83.92
6096;BME280;25081;42.698;23.298;2022-07-10T02:38:37;95069.41;;;15.05;83.83
6096;BME280;25081;42.698;23.298;2022-07-10T02:40:47;95070.95;;;14.98;83.93
6096;BME280;25081;42.698;23.298;2022-07-10T02:42:58;95070.42;;;14.99;84.15
6096;BME280;25081;42.698;23.298;2022-07-10T02:45:09;95072.56;;;14.97;84.23
6096;BME280;25081;42.698;23.298;2022-07-10T02:47:20;95082.71;;;14.95;84.33
6096;BME280;25081;42.698;23.298;2022-07-10T02:49:31;95069.77;;;14.89;84.35
6096;BME280;25081;42.698;23.298;2022-07-10T02:51:41;95080.53;;;14.92;84.64
6096;BME280;25081;42.698;23.298;2022-07-10T02:53:52;95082.69;;;14.92;84.27
6096;BME280;25081;42.698;23.298;2022-07-10T02:56:03;95080.00;;;14.92;84.38
6096;BME280;25081;42.698;23.298;2022-07-10T02:58:13;95083.09;;;15.03;83.80
6096;BME280;25081;42.698;23.298;2022-07-10T03:00:24;95087.98;;;15.06;83.70
6096;BME280;25081;42.698;23.298;2022-07-10T03:02:35;95090.05;;;15.02;83.57
6096;BME280;25081;42.698;23.298;2022-07-10T03:04:46;95092.77;;;15.04;83.74
6096;BME280;25081;42.698;23.298;2022-07-10T03:06:57;95086.30;;;15.03;83.67
6096;BME280;25081;42.698;23.298;2022-07-10T03:09:07;95090.35;;;15.05;83.67
6096;BME280;25081;42.698;23.298;2022-07-10T03:11:18;95093.57;;;15.05;83.81
6096;BME280;25081;42.698;23.298;2022-07-10T03:13:29;95095.80;;;15.10;83.62
6096;BME280;25081;42.698;23.298;2022-07-10T03:15:39;95098.51;;;15.13;83.15
6096;BME280;25081;42.698;23.298;2022-07-10T03:17:50;95097.44;;;15.14;83.40
6096;BME280;25081;42.698;23.298;2022-07-10T03:20:00;95099.55;;;15.09;83.10
6096;BME280;25081;42.698;23.298;2022-07-10T03:22:11;95102.28;;;15.14;83.04
6096;BME280;25081;42.698;23.298;2022-07-10T03:24:22;95107.45;;;15.18;82.85
6096;BME280;25081;42.698;23.298;2022-07-10T03:26:32;94961.41;;;14.29;82.35
6096;BME280;25081;42.698;23.298;2022-07-10T03:28:43;95104.88;;;15.29;82.30
6096;BME280;25081;42.698;23.298;2022-07-10T03:30:53;95106.14;;;15.45;81.72
6096;BME280;25081;42.698;23.298;2022-07-10T03:33:04;95107.61;;;15.58;81.11
6096;BME280;25081;42.698;23.298;2022-07-10T03:35:15;95104.81;;;15.72;80.58
6096;BME280;25081;42.698;23.298;2022-07-10T03:37:25;95107.86;;;15.81;80.06
6096;BME280;25081;42.698;23.298;2022-07-10T03:39:36;95102.17;;;15.75;80.52
6096;BME280;25081;42.698;23.298;2022-07-10T03:41:46;95102.17;;;15.75;80.52
6096;BME280;25081;42.698;23.298;2022-07-10T03:43:57;95105.95;;;15.77;80.20
6096;BME280;25081;42.698;23.298;2022-07-10T03:46:08;95098.77;;;15.85;80.25
6096;BME280;25081;42.698;23.298;2022-07-10T03:48:18;95096.27;;;16.08;79.29
6096;BME280;25081;42.698;23.298;2022-07-10T03:50:29;95092.97;;;16.33;78.86
6096;BME280;25081;42.698;23.298;2022-07-10T03:52:39;95088.81;;;16.57;77.25
6096;BME280;25081;42.698;23.298;2022-07-10T03:54:50;95086.44;;;16.60;76.08
6096;BME280;25081;42.698;23.298;2022-07-10T03:57:00;95086.44;;;16.60;76.08
6096;BME280;25081;42.698;23.298;2022-07-10T03:59:29;95083.89;;;16.88;75.12
6096;BME280;25081;42.698;23.298;2022-07-10T04:01:40;95082.32;;;16.95;75.12
6096;BME280;25081;42.698;23.298;2022-07-10T04:03:51;95083.17;;;17.06;75.00
6096;BME280;25081;42.698;23.298;2022-07-10T04:06:01;95083.17;;;17.06;75.00
6096;BME280;25081;42.698;23.298;2022-07-10T04:08:12;95087.56;;;17.27;73.85
6096;BME280;25081;42.698;23.298;2022-07-10T04:10:22;95088.70;;;17.46;73.07
6096;BME280;25081;42.698;23.298;2022-07-10T04:12:33;95081.73;;;17.63;72.35
6096;BME280;25081;42.698;23.298;2022-07-10T04:14:44;95079.63;;;17.70;72.39
6096;BME280;25081;42.698;23.298;2022-07-10T04:16:54;95084.38;;;17.43;73.10
6096;BME280;25081;42.698;23.298;2022-07-10T04:19:05;95075.70;;;17.29;73.53
6096;BME280;25081;42.698;23.298;2022-07-10T04:21:15;95075.70;;;17.21;73.72
6096;BME280;25081;42.698;23.298;2022-07-10T04:23:26;95076.74;;;17.09;74.20
6096;BME280;25081;42.698;23.298;2022-07-10T04:25:37;95067.81;;;16.99;74.70
6096;BME280;25081;42.698;23.298;2022-07-10T04:27:48;95067.81;;;16.99;74.70
6096;BME280;25081;42.698;23.298;2022-07-10T04:29:58;95064.81;;;16.98;74.92
6096;BME280;25081;42.698;23.298;2022-07-10T04:32:10;95069.73;;;17.11;74.93
6096;BME280;25081;42.698;23.298;2022-07-10T04:34:20;95076.36;;;17.68;73.34
6096;BME280;25081;42.698;23.298;2022-07-10T04:36:31;95069.16;;;18.15;70.68
6096;BME280;25081;42.698;23.298;2022-07-10T04:38:42;95069.36;;;18.69;68.84
6096;BME280;25081;42.698;23.298;2022-07-10T04:40:52;95072.20;;;19.68;66.40
6096;BME280;25081;42.698;23.298;2022-07-10T04:43:05;95067.97;;;19.98;63.98
6096;BME280;25081;42.698;23.298;2022-07-10T04:45:15;95069.53;;;20.36;62.40
6096;BME280;25081;42.698;23.298;2022-07-10T04:47:26;95068.75;;;20.67;62.11
6096;BME280;25081;42.698;23.298;2022-07-10T04:49:36;95071.05;;;21.29;59.97
6096;BME280;25081;42.698;23.298;2022-07-10T04:51:47;95062.67;;;21.26;58.74
6096;BME280;25081;42.698;23.298;2022-07-10T04:53:58;95070.01;;;21.23;58.84
6096;BME280;25081;42.698;23.298;2022-07-10T04:56:09;95063.86;;;21.60;58.27
6096;BME280;25081;42.698;23.298;2022-07-10T04:58:20;95070.34;;;21.19;58.65
6096;BME280;25081;42.698;23.298;2022-07-10T05:00:30;95065.88;;;21.06;59.58
6096;BME280;25081;42.698;23.298;2022-07-10T05:02:41;95065.42;;;21.66;58.24
6096;BME280;25081;42.698;23.298;2022-07-10T05:04:52;95064.57;;;21.87;56.55
6096;BME280;25081;42.698;23.298;2022-07-10T05:07:03;95070.41;;;21.78;57.23
6096;BME280;25081;42.698;23.298;2022-07-10T05:09:13;95065.62;;;22.26;55.76
6096;BME280;25081;42.698;23.298;2022-07-10T05:11:24;95066.43;;;22.59;54.36
6096;BME280;25081;42.698;23.298;2022-07-10T05:13:35;95067.39;;;22.17;55.31
6096;BME280;25081;42.698;23.298;2022-07-10T05:15:47;95068.34;;;21.69;57.10
6096;BME280;25081;42.698;23.298;2022-07-10T05:17:58;95067.14;;;22.16;55.51
6096;BME280;25081;42.698;23.298;2022-07-10T05:20:11;95061.46;;;22.15;55.20
6096;BME280;25081;42.698;23.298;2022-07-10T05:22:21;95054.83;;;22.83;53.81
6096;BME280;25081;42.698;23.298;2022-07-10T05:24:32;95050.77;;;23.66;52.20
6096;BME280;25081;42.698;23.298;2022-07-10T05:26:43;95053.74;;;24.14;50.58
6096;BME280;25081;42.698;23.298;2022-07-10T05:28:53;95058.95;;;23.77;50.64
6096;BME280;25081;42.698;23.298;2022-07-10T05:31:04;95057.00;;;23.53;52.14
6096;BME280;25081;42.698;23.298;2022-07-10T05:33:15;95056.00;;;23.62;51.14
6096;BME280;25081;42.698;23.298;2022-07-10T05:35:26;95061.28;;;23.70;51.10
6096;BME280;25081;42.698;23.298;2022-07-10T05:37:37;95060.01;;;23.79;51.05
6096;BME280;25081;42.698;23.298;2022-07-10T05:39:47;95063.17;;;24.53;49.41
6096;BME280;25081;42.698;23.298;2022-07-10T05:41:58;95061.76;;;24.44;49.36
6096;BME280;25081;42.698;23.298;2022-07-10T05:44:09;95055.45;;;24.10;48.79
6096;BME280;25081;42.698;23.298;2022-07-10T05:46:20;95054.00;;;24.49;48.28
6096;BME280;25081;42.698;23.298;2022-07-10T05:48:30;95049.55;;;24.84;47.18
6096;BME280;25081;42.698;23.298;2022-07-10T05:50:41;95054.08;;;24.35;47.44
6096;BME280;25081;42.698;23.298;2022-07-10T05:52:51;95054.49;;;24.62;47.38
6096;BME280;25081;42.698;23.298;2022-07-10T05:55:02;95059.51;;;24.13;48.60
6096;BME280;25081;42.698;23.298;2022-07-10T05:57:13;95065.79;;;24.78;47.52
6096;BME280;25081;42.698;23.298;2022-07-10T05:59:24;95052.70;;;25.48;45.42
6096;BME280;25081;42.698;23.298;2022-07-10T06:01:34;95056.98;;;25.98;44.88
6096;BME280;25081;42.698;23.298;2022-07-10T06:03:45;95052.95;;;25.49;45.23
6096;BME280;25081;42.698;23.298;2022-07-10T06:05:57;95053.70;;;25.32;46.89
6096;BME280;25081;42.698;23.298;2022-07-10T06:08:07;95058.34;;;25.60;45.37
6096;BME280;25081;42.698;23.298;2022-07-10T06:10:18;95059.23;;;25.87;44.26
6096;BME280;25081;42.698;23.298;2022-07-10T06:12:28;95052.17;;;26.38;43.34
6096;BME280;25081;42.698;23.298;2022-07-10T06:14:39;95055.60;;;26.81;42.39
6096;BME280;25081;42.698;23.298;2022-07-10T06:16:49;95058.52;;;26.44;42.83
6096;BME280;25081;42.698;23.298;2022-07-10T06:19:00;95051.27;;;25.88;43.42
6096;BME280;25081;42.698;23.298;2022-07-10T06:21:11;95053.93;;;26.16;43.50
6096;BME280;25081;42.698;23.298;2022-07-10T06:23:21;95050.05;;;26.43;42.75
6096;BME280;25081;42.698;23.298;2022-07-10T06:25:32;95047.09;;;26.08;43.46
6096;BME280;25081;42.698;23.298;2022-07-10T06:27:43;95041.39;;;26.15;42.63
6096;BME280;25081;42.698;23.298;2022-07-10T06:29:54;95048.84;;;26.30;43.36
6096;BME280;25081;42.698;23.298;2022-07-10T06:32:06;95048.30;;;25.87;44.10
6096;BME280;25081;42.698;23.298;2022-07-10T06:34:16;95049.83;;;26.16;42.20
6096;BME280;25081;42.698;23.298;2022-07-10T06:36:27;95038.58;;;25.63;43.10
6096;BME280;25081;42.698;23.298;2022-07-10T06:38:37;95045.48;;;26.07;42.16
6096;BME280;25081;42.698;23.298;2022-07-10T06:40:48;95044.42;;;26.48;42.23
6096;BME280;25081;42.698;23.298;2022-07-10T06:42:59;95045.14;;;26.51;41.25
6096;BME280;25081;42.698;23.298;2022-07-10T06:45:11;95042.50;;;27.28;40.42
6096;BME280;25081;42.698;23.298;2022-07-10T06:47:22;95039.80;;;27.49;39.70
6096;BME280;25081;42.698;23.298;2022-07-10T06:49:50;95043.20;;;27.16;40.55
6096;BME280;25081;42.698;23.298;2022-07-10T06:52:00;95036.72;;;25.53;43.75
6096;BME280;25081;42.698;23.298;2022-07-10T06:54:11;95035.09;;;24.19;47.01
6096;BME280;25081;42.698;23.298;2022-07-10T06:56:22;95036.07;;;23.89;48.25
6096;BME280;25081;42.698;23.298;2022-07-10T06:58:33;95039.67;;;23.62;48.78
6096;BME280;25081;42.698;23.298;2022-07-10T07:00:43;95036.93;;;23.37;49.67
6096;BME280;25081;42.698;23.298;2022-07-10T07:02:54;95042.39;;;23.62;48.91
6096;BME280;25081;42.698;23.298;2022-07-10T07:05:06;95039.52;;;23.81;48.29
6096;BME280;25081;42.698;23.298;2022-07-10T07:07:17;95032.47;;;23.80;47.86
6096;BME280;25081;42.698;23.298;2022-07-10T07:09:28;95045.67;;;23.62;48.43
6096;BME280;25081;42.698;23.298;2022-07-10T07:11:39;95036.07;;;23.89;48.11
6096;BME280;25081;42.698;23.298;2022-07-10T07:13:49;95036.80;;;23.92;48.17
6096;BME280;25081;42.698;23.298;2022-07-10T07:16:00;95033.27;;;23.81;49.06
6096;BME280;25081;42.698;23.298;2022-07-10T07:18:11;95031.64;;;23.30;50.03
6096;BME280;25081;42.698;23.298;2022-07-10T07:20:22;95032.97;;;22.91;51.25
6096;BME280;25081;42.698;23.298;2022-07-10T07:22:50;95032.30;;;23.38;50.58
6096;BME280;25081;42.698;23.298;2022-07-10T07:25:18;95024.82;;;25.40;46.48
6096;BME280;25081;42.698;23.298;2022-07-10T07:27:29;95029.38;;;26.31;44.22
6096;BME280;25081;42.698;23.298;2022-07-10T07:29:39;95025.36;;;27.54;40.95
6096;BME280;25081;42.698;23.298;2022-07-10T07:31:50;95016.14;;;27.59;40.21
6096;BME280;25081;42.698;23.298;2022-07-10T07:34:01;95010.77;;;28.67;38.33
6096;BME280;25081;42.698;23.298;2022-07-10T07:36:12;95011.69;;;28.83;38.17
6096;BME280;25081;42.698;23.298;2022-07-10T07:38:22;95009.69;;;29.04;37.42
6096;BME280;25081;42.698;23.298;2022-07-10T07:40:33;95007.88;;;29.39;36.15
6096;BME280;25081;42.698;23.298;2022-07-10T07:42:44;95012.00;;;29.27;37.02
6096;BME280;25081;42.698;23.298;2022-07-10T07:44:54;95009.14;;;29.35;36.95
6096;BME280;25081;42.698;23.298;2022-07-10T07:47:06;95007.47;;;28.79;38.08
6096;BME280;25081;42.698;23.298;2022-07-10T07:49:16;95005.91;;;28.51;38.68
6096;BME280;25081;42.698;23.298;2022-07-10T07:51:27;95010.63;;;28.63;38.43
6096;BME280;25081;42.698;23.298;2022-07-10T07:53:38;95013.12;;;29.14;36.67
6096;BME280;25081;42.698;23.298;2022-07-10T07:55:48;95009.59;;;29.07;36.13
6096;BME280;25081;42.698;23.298;2022-07-10T07:57:59;95011.14;;;28.38;36.85
6096;BME280;25081;42.698;23.298;2022-07-10T08:00:12;95011.16;;;28.23;38.02
6096;BME280;25081;42.698;23.298;2022-07-10T08:02:23;94998.84;;;28.96;36.55
6096;BME280;25081;42.698;23.298;2022-07-10T08:04:33;94996.94;;;28.30;37.63
6096;BME280;25081;42.698;23.298;2022-07-10T08:06:44;95004.25;;;26.87;40.33
6096;BME280;25081;42.698;23.298;2022-07-10T08:08:55;94999.70;;;27.59;38.93
6096;BME280;25081;42.698;23.298;2022-07-10T08:11:05;94994.70;;;28.23;37.25
6096;BME280;25081;42.698;23.298;2022-07-10T08:13:16;94990.83;;;29.52;33.71
6096;BME280;25081;42.698;23.298;2022-07-10T08:15:27;94998.94;;;29.24;34.61
6096;BME280;25081;42.698;23.298;2022-07-10T08:17:37;94991.06;;;29.99;33.53
6096;BME280;25081;42.698;23.298;2022-07-10T08:19:48;94989.47;;;30.60;32.55
6096;BME280;25081;42.698;23.298;2022-07-10T08:21:59;94991.39;;;31.35;31.31
6096;BME280;25081;42.698;23.298;2022-07-10T08:24:09;94996.69;;;30.65;33.29
6096;BME280;25081;42.698;23.298;2022-07-10T08:26:20;94989.72;;;31.30;31.39
6096;BME280;25081;42.698;23.298;2022-07-10T08:28:31;94998.48;;;30.73;31.81
6096;BME280;25081;42.698;23.298;2022-07-10T08:30:42;94996.10;;;31.34;30.78
6096;BME280;25081;42.698;23.298;2022-07-10T08:32:52;94996.38;;;30.54;31.72
6096;BME280;25081;42.698;23.298;2022-07-10T08:35:03;94994.62;;;30.62;32.62
6096;BME280;25081;42.698;23.298;2022-07-10T08:37:14;94989.50;;;31.80;29.19
6096;BME280;25081;42.698;23.298;2022-07-10T08:39:24;94997.41;;;32.36;28.16
6096;BME280;25081;42.698;23.298;2022-07-10T08:41:35;94990.72;;;32.80;27.26
6096;BME280;25081;42.698;23.298;2022-07-10T08:43:45;94997.45;;;31.66;29.07
6096;BME280;25081;42.698;23.298;2022-07-10T08:45:56;94992.15;;;31.67;29.76
6096;BME280;25081;42.698;23.298;2022-07-10T08:48:07;94993.46;;;30.01;32.38
6096;BME280;25081;42.698;23.298;2022-07-10T08:50:21;94993.16;;;28.68;34.11
6096;BME280;25081;42.698;23.298;2022-07-10T08:52:33;94994.48;;;29.13;34.09
6096;BME280;25081;42.698;23.298;2022-07-10T08:54:42;94989.62;;;28.34;35.89
6096;BME280;25081;42.698;23.298;2022-07-10T08:56:52;94994.96;;;28.64;35.42
6096;BME280;25081;42.698;23.298;2022-07-10T08:59:04;94984.70;;;27.86;35.97
6096;BME280;25081;42.698;23.298;2022-07-10T09:01:15;94984.97;;;27.22;37.62
6096;BME280;25081;42.698;23.298;2022-07-10T09:03:26;94985.51;;;27.86;37.44
6096;BME280;25081;42.698;23.298;2022-07-10T09:05:36;94986.28;;;28.02;36.33
6096;BME280;25081;42.698;23.298;2022-07-10T09:07:47;94983.42;;;27.48;37.85
6096;BME280;25081;42.698;23.298;2022-07-10T09:09:58;94982.55;;;27.20;38.08
6096;BME280;25081;42.698;23.298;2022-07-10T09:12:10;94988.55;;;27.14;38.14
6096;BME280;25081;42.698;23.298;2022-07-10T09:14:20;94981.53;;;26.72;38.65
6096;BME280;25081;42.698;23.298;2022-07-10T09:16:32;94971.28;;;28.26;35.17
6096;BME280;25081;42.698;23.298;2022-07-10T09:18:42;94947.98;;;28.59;34.94
6096;BME280;25081;42.698;23.298;2022-07-10T09:20:53;94976.42;;;28.55;35.01
6096;BME280;25081;42.698;23.298;2022-07-10T09:23:14;94976.73;;;29.41;34.44
6096;BME280;25081;42.698;23.298;2022-07-10T09:25:25;94974.66;;;28.77;35.62
6096;BME280;25081;42.698;23.298;2022-07-10T09:27:35;94974.27;;;27.73;36.94
6096;BME280;25081;42.698;23.298;2022-07-10T09:29:47;94968.47;;;27.30;37.47
6096;BME280;25081;42.698;23.298;2022-07-10T09:31:57;94976.56;;;27.42;38.30
6096;BME280;25081;42.698;23.298;2022-07-10T09:34:08;94965.98;;;27.88;36.70
6096;BME280;25081;42.698;23.298;2022-07-10T09:36:19;94958.80;;;28.89;35.23
6096;BME280;25081;42.698;23.298;2022-07-10T09:38:31;94962.42;;;29.60;33.11
6096;BME280;25081;42.698;23.298;2022-07-10T09:40:42;94960.92;;;29.62;33.94
6096;BME280;25081;42.698;23.298;2022-07-10T09:42:53;94960.88;;;28.53;35.95
6096;BME280;25081;42.698;23.298;2022-07-10T09:45:17;94955.92;;;29.22;33.33
6096;BME280;25081;42.698;23.298;2022-07-10T09:47:27;94952.75;;;30.18;32.37
6096;BME280;25081;42.698;23.298;2022-07-10T09:49:38;94956.53;;;30.70;30.64
6096;BME280;25081;42.698;23.298;2022-07-10T09:51:48;94952.67;;;30.09;31.62
6096;BME280;25081;42.698;23.298;2022-07-10T09:54:00;94967.07;;;30.68;31.85
6096;BME280;25081;42.698;23.298;2022-07-10T09:56:10;94957.48;;;30.06;31.42
6096;BME280;25081;42.698;23.298;2022-07-10T09:58:20;94952.61;;;28.92;32.81
6096;BME280;25081;42.698;23.298;2022-07-10T10:00:31;94954.11;;;28.44;35.09
6096;BME280;25081;42.698;23.298;2022-07-10T10:02:42;94950.66;;;28.92;35.48
6096;BME280;25081;42.698;23.298;2022-07-10T10:04:53;94949.81;;;29.99;32.93
6096;BME280;25081;42.698;23.298;2022-07-10T10:07:04;94946.78;;;30.44;31.30
6096;BME280;25081;42.698;23.298;2022-07-10T10:09:19;94941.09;;;30.09;30.82
6096;BME280;25081;42.698;23.298;2022-07-10T10:11:27;94949.47;;;30.35;30.23
6096;BME280;25081;42.698;23.298;2022-07-10T10:13:38;94951.70;;;29.24;31.83
6096;BME280;25081;42.698;23.298;2022-07-10T10:15:49;94944.12;;;28.78;33.30
6096;BME280;25081;42.698;23.298;2022-07-10T10:17:59;94944.12;;;29.52;32.13
6096;BME280;25081;42.698;23.298;2022-07-10T10:20:12;94947.44;;;28.78;33.73
6096;BME280;25081;42.698;23.298;2022-07-10T10:22:41;94945.16;;;28.08;35.23
6096;BME280;25081;42.698;23.298;2022-07-10T10:24:52;94949.98;;;27.42;36.75
6096;BME280;25081;42.698;23.298;2022-07-10T10:27:02;94952.94;;;26.61;38.22
6096;BME280;25081;42.698;23.298;2022-07-10T10:29:13;94944.08;;;26.40;38.39
6096;BME280;25081;42.698;23.298;2022-07-10T10:31:24;94952.22;;;26.25;38.56
6096;BME280;25081;42.698;23.298;2022-07-10T10:33:45;94947.17;;;26.04;38.54
6096;BME280;25081;42.698;23.298;2022-07-10T10:35:55;94948.08;;;25.67;39.62
6096;BME280;25081;42.698;23.298;2022-07-10T10:38:06;94945.86;;;25.78;39.89
6096;BME280;25081;42.698;23.298;2022-07-10T10:40:32;94933.05;;;26.02;39.75
6096;BME280;25081;42.698;23.298;2022-07-10T10:42:42;94934.25;;;26.48;39.26
6096;BME280;25081;42.698;23.298;2022-07-10T10:44:58;94933.47;;;26.39;38.96
6096;BME280;25081;42.698;23.298;2022-07-10T10:47:08;94938.39;;;26.77;37.60
6096;BME280;25081;42.698;23.298;2022-07-10T10:49:20;94933.22;;;26.85;37.79
6096;BME280;25081;42.698;23.298;2022-07-10T10:51:56;94939.02;;;26.60;38.77
6096;BME280;25081;42.698;23.298;2022-07-10T10:54:07;94942.67;;;26.17;40.41
6096;BME280;25081;42.698;23.298;2022-07-10T10:56:25;94938.42;;;26.54;38.37
6096;BME280;25081;42.698;23.298;2022-07-10T10:58:39;94923.34;;;26.77;38.66
6096;BME280;25081;42.698;23.298;2022-07-10T11:00:49;94921.56;;;27.26;37.21
6096;BME280;25081;42.698;23.298;2022-07-10T11:03:14;94915.69;;;27.57;35.78
6096;BME280;25081;42.698;23.298;2022-07-10T11:05:44;94916.63;;;27.40;36.21
6096;BME280;25081;42.698;23.298;2022-07-10T11:07:55;94935.79;;;27.40;36.94
6096;BME280;25081;42.698;23.298;2022-07-10T11:10:27;94915.98;;;26.99;37.10
6096;BME280;25081;42.698;23.298;2022-07-10T11:12:59;94910.97;;;27.30;36.88
6096;BME280;25081;42.698;23.298;2022-07-10T11:15:11;94910.75;;;27.98;36.19
6096;BME280;25081;42.698;23.298;2022-07-10T11:17:24;94912.05;;;28.46;35.15
6096;BME280;25081;42.698;23.298;2022-07-10T11:19:32;94906.81;;;28.65;34.66
6096;BME280;25081;42.698;23.298;2022-07-10T11:21:47;94912.27;;;28.08;35.14
6096;BME280;25081;42.698;23.298;2022-07-10T11:24:03;94916.94;;;27.53;36.36
6096;BME280;25081;42.698;23.298;2022-07-10T11:26:13;94917.56;;;27.23;37.18
6096;BME280;25081;42.698;23.298;2022-07-10T11:28:24;94917.56;;;27.23;37.31
6096;BME280;25081;42.698;23.298;2022-07-10T11:30:45;94913.91;;;26.43;38.82
6096;BME280;25081;42.698;23.298;2022-07-10T11:32:56;94912.38;;;26.48;38.35
6096;BME280;25081;42.698;23.298;2022-07-10T11:35:11;94908.61;;;26.61;39.33
6096;BME280;25081;42.698;23.298;2022-07-10T11:37:22;94905.73;;;26.72;38.12